createdAt,value
2022-11-10T00:01:56.627Z,1.40
2022-11-10T00:04:43.324Z,0.65
2022-11-10T00:07:30.191Z,1.00
2022-11-10T00:10:16.498Z,0.70
2022-11-10T00:13:03.815Z,0.80
2022-11-10T00:16:08.889Z,0.82
2022-11-10T00:18:55.353Z,0.98
2022-11-10T00:21:41.833Z,1.45
2022-11-10T00:24:28.991Z,0.75
2022-11-10T00:27:15.623Z,0.80
2022-11-10T00:30:02.402Z,0.80
2022-11-10T00:32:48.856Z,0.90
2022-11-10T00:35:35.679Z,1.20
2022-11-10T00:38:21.883Z,0.85
2022-11-10T00:41:08.472Z,0.70
2022-11-10T00:43:55.230Z,0.80
2022-11-10T00:46:41.915Z,0.75
2022-11-10T00:49:28.601Z,0.90
2022-11-10T00:52:14.964Z,0.60
2022-11-10T00:55:01.345Z,1.00
2022-11-10T00:57:47.759Z,1.48
2022-11-10T01:00:34.374Z,1.00
2022-11-10T01:03:22.545Z,1.15
2022-11-10T01:06:15.631Z,0.90
2022-11-10T01:09:05.500Z,0.80
2022-11-10T01:11:51.693Z,0.88
2022-11-10T01:14:38.500Z,0.77
2022-11-10T01:17:24.947Z,1.52
2022-11-10T01:20:11.940Z,1.00
2022-11-10T01:22:58.451Z,0.98
2022-11-10T01:25:45.087Z,1.40
2022-11-10T01:28:32.235Z,1.67
2022-11-10T01:31:21.181Z,1.27
2022-11-10T01:34:07.926Z,1.00
2022-11-10T01:36:54.160Z,1.08
2022-11-10T01:39:40.622Z,1.00
2022-11-10T01:42:48.895Z,0.98
2022-11-10T01:45:54.649Z,0.77
2022-11-10T01:48:48.461Z,1.20
2022-11-10T01:51:56.595Z,0.90
2022-11-10T01:54:48.588Z,2.08
2022-11-10T01:57:35.734Z,1.10
2022-11-10T02:00:23.020Z,0.90
2022-11-10T02:03:24.338Z,1.30
2022-11-10T02:06:11.997Z,1.33
2022-11-10T02:09:01.220Z,0.90
2022-11-10T02:11:48.216Z,0.93
2022-11-10T02:14:34.755Z,1.50
2022-11-10T02:17:21.128Z,1.27
2022-11-10T02:20:11.010Z,0.85
2022-11-10T02:22:57.370Z,1.33
2022-11-10T02:25:43.989Z,1.10
2022-11-10T02:28:34.976Z,1.38
2022-11-10T02:31:21.623Z,1.43
2022-11-10T02:34:08.035Z,1.48
2022-11-10T02:36:54.336Z,0.90
2022-11-10T02:39:40.828Z,1.15
2022-11-10T02:42:27.236Z,1.10
2022-11-10T02:45:14.144Z,1.20
2022-11-10T02:48:00.243Z,1.30
2022-11-10T02:50:47.046Z,1.00
2022-11-10T02:53:33.773Z,1.20
2022-11-10T02:56:20.347Z,1.50
2022-11-10T02:59:06.814Z,1.30
2022-11-10T03:01:53.502Z,1.30
2022-11-10T03:04:39.895Z,1.70
2022-11-10T03:07:26.110Z,1.40
2022-11-10T03:10:12.759Z,1.75
2022-11-10T03:13:01.236Z,1.23
2022-11-10T03:15:50.768Z,1.48
2022-11-10T03:18:37.254Z,1.73
2022-11-10T03:21:23.599Z,1.70
2022-11-10T03:24:10.185Z,1.15
2022-11-10T03:26:56.507Z,2.28
2022-11-10T03:29:42.911Z,1.50
2022-11-10T03:32:29.454Z,2.10
2022-11-10T03:35:15.679Z,1.63
2022-11-10T03:38:02.362Z,1.40
2022-11-10T03:41:17.738Z,1.40
2022-11-10T03:43:59.583Z,1.55
2022-11-10T03:46:50.358Z,1.58
2022-11-10T03:49:38.158Z,1.58
2022-11-10T03:52:24.554Z,1.50
2022-11-10T03:55:13.186Z,1.85
2022-11-10T03:58:03.584Z,1.70
2022-11-10T04:00:50.278Z,1.92
2022-11-10T04:03:36.834Z,1.80
2022-11-10T04:06:59.157Z,1.98
2022-11-10T04:09:45.243Z,1.88
2022-11-10T04:12:49.943Z,1.83
2022-11-10T04:15:42.615Z,1.95
2022-11-10T04:18:30.081Z,1.38
2022-11-10T04:21:16.337Z,1.60
2022-11-10T04:24:03.220Z,1.65
2022-11-10T04:26:49.771Z,1.90
2022-11-10T04:29:36.213Z,2.05
2022-11-10T04:32:22.458Z,1.83
2022-11-10T04:35:09.376Z,1.60
2022-11-10T04:37:55.919Z,1.65
2022-11-10T04:40:42.180Z,1.70
2022-11-10T04:43:28.953Z,1.63
2022-11-10T04:46:24.347Z,1.80
2022-11-10T04:49:11.548Z,2.08
2022-11-10T04:51:57.924Z,1.80
2022-11-10T04:54:44.666Z,1.88
2022-11-10T04:57:31.414Z,1.83
2022-11-10T05:00:18.391Z,2.10
2022-11-10T05:03:06.928Z,2.40
2022-11-10T05:05:53.209Z,1.85
2022-11-10T05:08:42.069Z,2.17
2022-11-10T05:11:28.455Z,2.67
2022-11-10T05:14:15.072Z,2.20
2022-11-10T05:17:01.747Z,2.58
2022-11-10T05:19:48.316Z,2.17
2022-11-10T05:22:34.957Z,2.10
2022-11-10T05:25:21.469Z,2.30
2022-11-10T05:28:09.464Z,1.90
2022-11-10T05:30:56.035Z,2.00
2022-11-10T05:33:42.766Z,2.20
2022-11-10T05:36:29.246Z,2.67
2022-11-10T05:39:15.826Z,2.13
2022-11-10T05:42:02.497Z,2.33
2022-11-10T05:44:48.696Z,2.10
2022-11-10T05:47:37.612Z,2.60
2022-11-10T05:50:25.301Z,2.30
2022-11-10T05:53:11.848Z,1.98
2022-11-10T05:55:58.192Z,1.85
2022-11-10T05:58:44.696Z,2.10
2022-11-10T06:01:30.786Z,1.67
2022-11-10T06:04:17.487Z,2.40
2022-11-10T06:07:04.139Z,1.63
2022-11-10T06:09:50.613Z,1.40
2022-11-10T06:12:37.139Z,1.90
2022-11-10T06:15:24.180Z,1.55
2022-11-10T06:18:10.269Z,1.83
2022-11-10T06:20:56.652Z,1.45
2022-11-10T06:23:43.465Z,1.77
2022-11-10T06:26:29.801Z,2.10
2022-11-10T06:29:16.084Z,1.50
2022-11-10T06:32:02.593Z,1.63
2022-11-10T06:34:49.350Z,1.50
2022-11-10T06:37:35.960Z,1.80
2022-11-10T06:40:22.351Z,2.63
2022-11-10T06:43:08.769Z,1.55
2022-11-10T06:45:55.241Z,1.90
2022-11-10T06:48:41.719Z,1.92
2022-11-10T06:51:28.362Z,1.90
2022-11-10T06:54:14.882Z,1.55
2022-11-10T06:57:01.549Z,2.85
2022-11-10T06:59:47.605Z,1.77
2022-11-10T07:02:34.251Z,1.75
2022-11-10T07:05:20.785Z,1.67
2022-11-10T07:08:09.081Z,1.52
2022-11-10T07:10:56.527Z,2.10
2022-11-10T07:13:43.629Z,1.73
2022-11-10T07:16:30.087Z,1.73
2022-11-10T07:19:16.461Z,1.77
2022-11-10T07:22:07.979Z,1.40
2022-11-10T07:24:57.199Z,1.70
2022-11-10T07:27:43.746Z,2.10
2022-11-10T07:30:31.530Z,1.60
2022-11-10T07:33:17.739Z,1.65
2022-11-10T07:36:05.082Z,1.90
2022-11-10T07:38:51.804Z,1.40
2022-11-10T07:41:38.235Z,1.70
2022-11-10T07:44:25.876Z,1.42
2022-11-10T07:47:12.679Z,2.00
2022-11-10T07:49:59.081Z,1.23
2022-11-10T07:52:45.740Z,1.50
2022-11-10T07:55:32.470Z,1.35
2022-11-10T07:58:19.495Z,1.20
2022-11-10T08:01:05.987Z,1.38
2022-11-10T08:03:52.508Z,2.20
2022-11-10T08:06:39.160Z,1.42
2022-11-10T08:09:25.691Z,1.55
2022-11-10T08:12:11.835Z,1.30
2022-11-10T08:14:58.263Z,1.30
2022-11-10T08:17:44.588Z,1.25
2022-11-10T08:20:31.638Z,1.17
2022-11-10T08:23:18.729Z,1.45
2022-11-10T08:26:04.934Z,1.75
2022-11-10T08:28:51.517Z,1.70
2022-11-10T08:31:38.668Z,1.45
2022-11-10T08:34:25.057Z,1.17
2022-11-10T08:37:11.152Z,1.20
2022-11-10T08:39:58.123Z,1.55
2022-11-10T08:42:44.515Z,1.38
2022-11-10T08:45:30.852Z,2.08
2022-11-10T08:48:21.352Z,1.40
2022-11-10T08:51:07.925Z,1.17
2022-11-10T08:53:54.442Z,1.20
2022-11-10T08:56:40.563Z,2.10
2022-11-10T08:59:26.782Z,1.10
2022-11-10T09:02:13.274Z,0.90
2022-11-10T09:04:59.842Z,1.20
2022-11-10T09:07:47.512Z,1.08
2022-11-10T09:10:41.266Z,0.98
2022-11-10T09:13:30.363Z,1.13
2022-11-10T09:16:17.235Z,1.30
2022-11-10T09:19:03.404Z,1.20
2022-11-10T09:21:49.889Z,1.60
2022-11-10T09:24:36.702Z,1.13
2022-11-10T09:27:23.396Z,1.00
2022-11-10T09:30:17.231Z,1.40
2022-11-10T09:33:04.621Z,1.00
2022-11-10T09:35:51.433Z,1.40
2022-11-10T09:38:37.853Z,1.15
2022-11-10T09:41:24.585Z,1.08
2022-11-10T09:44:19.597Z,0.90
2022-11-10T09:47:18.894Z,1.30
2022-11-10T09:50:19.728Z,1.30
2022-11-10T09:53:09.101Z,1.25
2022-11-10T09:56:04.789Z,1.30
2022-11-10T09:58:51.985Z,1.55
2022-11-10T10:02:13.563Z,1.38
2022-11-10T10:05:36.282Z,1.20
2022-11-10T10:08:48.785Z,1.20
2022-11-10T10:12:01.576Z,1.65
2022-11-10T10:15:02.992Z,0.77
2022-11-10T10:18:08.204Z,1.55
2022-11-10T10:21:17.524Z,1.00
2022-11-10T10:24:15.081Z,1.25
2022-11-10T10:27:06.766Z,1.02
2022-11-10T10:29:54.841Z,0.73
2022-11-10T10:32:42.652Z,1.27
2022-11-10T10:35:29.820Z,0.95
2022-11-10T10:38:31.563Z,1.08
2022-11-10T10:41:26.385Z,0.70
2022-11-10T10:44:18.407Z,1.17
2022-11-10T10:47:05.559Z,1.05
2022-11-10T10:49:51.901Z,0.95
2022-11-10T10:52:38.182Z,0.93
2022-11-10T10:55:30.161Z,1.10
2022-11-10T10:58:21.776Z,1.00
2022-11-10T11:01:18.541Z,1.00
2022-11-10T11:04:36.818Z,1.05
2022-11-10T11:07:24.976Z,1.42
2022-11-10T11:10:25.269Z,1.35
2022-11-10T11:13:23.630Z,1.42
2022-11-10T11:16:12.844Z,0.98
2022-11-10T11:18:59.668Z,1.38
2022-11-10T11:21:49.267Z,1.40
2022-11-10T11:24:58.073Z,1.02
2022-11-10T11:27:58.749Z,1.38
2022-11-10T11:30:50.582Z,1.42
2022-11-10T11:34:00.310Z,1.85
2022-11-10T11:37:19.212Z,1.27
2022-11-10T11:40:12.972Z,1.25
2022-11-10T11:43:02.583Z,1.15
2022-11-10T11:46:21.236Z,1.38
2022-11-10T11:49:44.963Z,1.30
2022-11-10T11:52:46.197Z,1.05
2022-11-10T11:58:57.688Z,1.63
2022-11-10T12:02:12.016Z,0.95
2022-11-10T12:05:04.211Z,1.08
2022-11-10T12:08:13.566Z,0.90
2022-11-10T12:11:18.425Z,0.90
2022-11-10T12:14:38.080Z,1.20
2022-11-10T12:17:49.725Z,1.30
2022-11-10T12:21:32.537Z,1.60
2022-11-10T12:24:34.030Z,1.23
2022-11-10T12:27:29.300Z,1.35
2022-11-10T12:30:17.856Z,0.93
2022-11-10T12:33:36.040Z,1.15
2022-11-10T12:36:23.428Z,0.93
2022-11-10T12:39:23.870Z,1.20
2022-11-10T12:42:30.379Z,1.13
2022-11-10T12:45:35.955Z,1.08
2022-11-10T12:48:22.853Z,0.70
2022-11-10T12:51:24.799Z,1.00
2022-11-10T12:54:16.971Z,1.00
2022-11-10T12:57:14.353Z,1.00
2022-11-10T13:00:06.075Z,0.93
2022-11-10T13:02:55.801Z,1.00
2022-11-10T13:05:45.496Z,1.00
2022-11-10T13:08:44.393Z,1.05
2022-11-10T13:11:40.678Z,1.50
2022-11-10T13:14:29.937Z,1.10
2022-11-10T13:17:28.772Z,1.98
2022-11-10T13:20:54.479Z,1.00
2022-11-10T13:23:43.888Z,0.60
2022-11-10T13:26:45.375Z,1.10
2022-11-10T13:29:47.319Z,1.45
2022-11-10T13:32:35.044Z,1.10
2022-11-10T13:35:30.789Z,1.45
2022-11-10T13:38:37.858Z,1.42
2022-11-10T13:41:26.542Z,1.23
2022-11-10T13:44:29.430Z,1.17
2022-11-10T13:47:42.499Z,0.80
2022-11-10T13:50:48.319Z,0.85
2022-11-10T13:53:56.105Z,0.80
2022-11-10T13:56:57.472Z,0.90
2022-11-10T13:59:56.800Z,0.80
2022-11-10T14:02:47.523Z,1.02
2022-11-10T14:05:38.572Z,1.47
2022-11-10T14:08:28.060Z,1.45
2022-11-10T14:11:19.313Z,1.17
2022-11-10T14:14:25.665Z,1.08
2022-11-10T14:17:23.321Z,0.98
2022-11-10T14:20:38.360Z,1.10
2022-11-10T14:23:48.148Z,1.00
2022-11-10T14:26:40.128Z,0.77
2022-11-10T14:29:38.700Z,1.08
2022-11-10T14:32:25.169Z,1.10
2022-11-10T14:35:23.245Z,1.13
2022-11-10T14:38:28.594Z,0.90
2022-11-10T14:41:22.910Z,0.90
2022-11-10T14:44:15.779Z,1.25
2022-11-10T14:47:25.853Z,1.38
2022-11-10T14:50:16.577Z,1.35
2022-11-10T14:53:29.552Z,1.23
2022-11-10T14:56:22.886Z,1.15
2022-11-10T14:59:12.399Z,0.52
2022-11-10T15:02:01.465Z,1.30
2022-11-10T15:04:50.473Z,0.95
2022-11-10T15:07:37.359Z,1.20
2022-11-10T15:10:23.694Z,0.95
2022-11-10T15:13:12.946Z,1.42
2022-11-10T15:16:27.364Z,1.17
2022-11-10T15:19:29.968Z,0.98
2022-11-10T15:22:34.039Z,0.70
2022-11-10T15:25:23.403Z,0.77
2022-11-10T15:28:13.095Z,1.00
2022-11-10T15:31:13.416Z,1.00
2022-11-10T15:34:04.889Z,0.90
2022-11-10T15:37:31.341Z,1.23
2022-11-10T15:40:48.916Z,0.70
2022-11-10T15:43:35.547Z,0.90
2022-11-10T15:46:24.577Z,0.70
2022-11-10T15:49:37.307Z,1.20
2022-11-10T15:52:24.016Z,0.82
2022-11-10T15:55:29.870Z,1.00
2022-11-10T15:58:18.486Z,1.23
2022-11-10T16:01:05.529Z,0.80
2022-11-10T16:03:51.816Z,1.13
2022-11-10T16:06:39.552Z,1.10
2022-11-10T16:09:26.139Z,1.42
2022-11-10T16:12:21.205Z,0.80
2022-11-10T16:15:09.698Z,1.15
2022-11-10T16:17:56.415Z,0.93
2022-11-10T16:20:43.413Z,1.13
2022-11-10T16:23:29.992Z,0.90
2022-11-10T16:26:21.484Z,0.90
2022-11-10T16:29:14.138Z,0.90
2022-11-10T16:32:00.679Z,1.08
2022-11-10T16:34:47.255Z,1.20
2022-11-10T16:37:35.091Z,1.10
2022-11-10T16:40:24.012Z,0.95
2022-11-10T16:43:18.959Z,1.10
2022-11-10T16:46:14.346Z,1.02
2022-11-10T16:49:02.145Z,1.17
2022-11-10T16:51:49.304Z,1.00
2022-11-10T16:54:35.780Z,1.20
2022-11-10T16:57:22.304Z,1.58
2022-11-10T17:00:09.727Z,1.45
2022-11-10T17:03:16.775Z,1.10
2022-11-10T17:06:03.156Z,1.08
2022-11-10T17:08:51.591Z,1.15
2022-11-10T17:11:37.984Z,1.38
2022-11-10T17:14:24.738Z,1.00
2022-11-10T17:17:18.737Z,1.67
2022-11-10T17:20:06.490Z,1.10
2022-11-10T17:22:53.345Z,1.00
2022-11-10T17:25:39.368Z,1.10
2022-11-10T17:28:25.997Z,1.00
2022-11-10T17:31:14.160Z,1.55
2022-11-10T17:34:00.575Z,1.23
2022-11-10T17:36:47.133Z,1.35
2022-11-10T17:39:34.219Z,1.00
2022-11-10T17:42:20.915Z,1.38
2022-11-10T17:45:11.224Z,1.20
2022-11-10T17:47:57.831Z,1.48
2022-11-10T17:50:47.165Z,1.95
2022-11-10T17:53:33.851Z,1.13
2022-11-10T17:56:20.862Z,0.80
2022-11-10T17:59:07.667Z,1.00
2022-11-10T18:01:54.727Z,1.00
2022-11-10T18:04:41.146Z,0.85
2022-11-10T18:07:27.825Z,1.00
2022-11-10T18:10:14.992Z,1.40
2022-11-10T18:13:01.837Z,1.73
2022-11-10T18:15:49.574Z,1.13
2022-11-10T18:18:37.036Z,1.05
2022-11-10T18:21:23.417Z,1.10
2022-11-10T18:24:09.717Z,0.80
2022-11-10T18:26:55.890Z,1.00
2022-11-10T18:29:42.525Z,1.20
2022-11-10T18:32:28.768Z,1.30
2022-11-10T18:35:15.468Z,1.10
2022-11-10T18:38:02.380Z,1.10
2022-11-10T18:40:48.573Z,1.08
2022-11-10T18:43:35.771Z,1.13
2022-11-10T18:46:22.268Z,1.67
2022-11-10T18:49:08.964Z,1.13
2022-11-10T18:51:55.475Z,1.20
2022-11-10T18:54:42.125Z,1.23
2022-11-10T18:57:29.118Z,0.85
2022-11-10T19:00:16.058Z,1.17
2022-11-10T19:03:02.469Z,1.02
2022-11-10T19:05:57.212Z,1.00
2022-11-10T19:08:45.790Z,0.80
2022-11-10T19:11:33.673Z,1.02
2022-11-10T19:14:20.536Z,1.38
2022-11-10T19:17:07.063Z,1.00
2022-11-10T19:19:56.461Z,1.08
2022-11-10T19:22:43.657Z,1.10
2022-11-10T19:25:31.048Z,1.00
2022-11-10T19:28:17.643Z,1.45
2022-11-10T19:31:13.184Z,1.00
2022-11-10T19:33:59.700Z,0.90
2022-11-10T19:36:46.918Z,1.30
2022-11-10T19:39:33.171Z,0.90
2022-11-10T19:42:19.799Z,0.75
2022-11-10T19:45:07.037Z,1.30
2022-11-10T19:47:54.317Z,1.10
2022-11-10T19:50:45.148Z,1.20
2022-11-10T19:53:34.709Z,1.25
2022-11-10T19:56:26.237Z,1.00
2022-11-10T19:59:16.045Z,0.98
2022-11-10T20:02:02.509Z,0.70
2022-11-10T20:05:07.155Z,0.90
2022-11-10T20:08:11.543Z,0.70
2022-11-10T20:11:15.821Z,0.75
2022-11-10T20:14:02.098Z,0.77
2022-11-10T20:16:48.519Z,0.93
2022-11-10T20:19:40.714Z,0.85
2022-11-10T20:22:28.014Z,1.10
2022-11-10T20:25:14.291Z,0.90
2022-11-10T20:28:06.599Z,0.90
2022-11-10T20:30:57.277Z,0.88
2022-11-10T20:33:45.575Z,0.93
2022-11-10T20:36:34.143Z,1.00
2022-11-10T20:39:20.797Z,1.90
2022-11-10T20:42:07.020Z,1.02
2022-11-10T20:44:53.672Z,1.08
2022-11-10T20:47:40.315Z,1.33
2022-11-10T20:50:26.772Z,1.20
2022-11-10T20:53:13.219Z,1.35
2022-11-10T20:56:02.127Z,1.50
2022-11-10T20:58:49.408Z,1.60
2022-11-10T21:01:37.867Z,1.50
2022-11-10T21:04:24.461Z,1.50
2022-11-10T21:07:10.901Z,1.50
2022-11-10T21:09:57.103Z,2.13
2022-11-10T21:12:49.397Z,2.08
2022-11-10T21:15:39.646Z,2.08
2022-11-10T21:18:28.796Z,1.38
2022-11-10T21:21:34.896Z,1.75
2022-11-10T21:24:21.368Z,1.23
2022-11-10T21:27:09.065Z,1.30
2022-11-10T21:29:56.130Z,1.30
2022-11-10T21:32:42.492Z,1.40
2022-11-10T21:35:30.932Z,1.17
2022-11-10T21:38:19.879Z,1.00
2022-11-10T21:41:06.701Z,1.02
2022-11-10T21:43:53.190Z,0.95
2022-11-10T21:46:39.734Z,0.95
2022-11-10T21:49:26.420Z,1.10
2022-11-10T21:52:12.989Z,1.02
2022-11-10T21:55:00.389Z,1.00
2022-11-10T21:57:47.148Z,1.08
2022-11-10T22:00:33.519Z,1.58
2022-11-10T22:03:20.355Z,1.00
2022-11-10T22:06:12.448Z,1.00
2022-11-10T22:08:58.885Z,1.13
2022-11-10T22:12:04.224Z,1.58
2022-11-10T22:15:09.189Z,1.10
2022-11-10T22:18:15.013Z,1.80
2022-11-10T22:21:01.848Z,2.58
2022-11-10T22:24:06.608Z,2.13
2022-11-10T22:27:01.256Z,1.20
2022-11-10T22:29:47.836Z,1.48
2022-11-10T22:32:34.457Z,1.15
2022-11-10T22:35:39.662Z,0.88
2022-11-10T22:38:26.290Z,0.93
2022-11-10T22:41:34.799Z,0.80
2022-11-10T22:44:25.015Z,1.05
2022-11-10T22:47:11.422Z,0.80
2022-11-10T22:49:57.841Z,1.00
2022-11-10T22:52:45.551Z,1.05
2022-11-10T22:55:32.194Z,0.80
2022-11-10T22:58:18.730Z,0.80
2022-11-10T23:01:09.568Z,1.10
2022-11-10T23:03:58.344Z,0.60
2022-11-10T23:07:00.397Z,1.00
2022-11-10T23:09:46.986Z,0.85
2022-11-10T23:12:33.745Z,1.10
2022-11-10T23:15:20.869Z,1.52
2022-11-10T23:18:07.281Z,0.98
2022-11-10T23:21:04.264Z,0.93
2022-11-10T23:23:51.581Z,1.00
2022-11-10T23:26:38.349Z,0.57
2022-11-10T23:29:25.053Z,0.90
2022-11-10T23:32:11.258Z,1.00
2022-11-10T23:34:58.082Z,0.90
2022-11-10T23:37:44.592Z,0.80
2022-11-10T23:40:31.307Z,0.90
2022-11-10T23:43:17.888Z,1.20
2022-11-10T23:46:07.410Z,1.08
2022-11-10T23:48:54.521Z,1.08
2022-11-10T23:51:41.021Z,1.08
2022-11-10T23:54:27.888Z,0.80
2022-11-10T23:57:14.146Z,1.42
